Gifford, Iowa
Current Conditions -  °F | °C
As of 5:53 AM on Sunday 21 Dec 2014 (Local Time) from KMIW Reporting Station
Haze Haze  
Wind Chill: 28°   Ceiling: 800
Heat Index: 36°   Visibility: 5mi
Dew Point: 35°   Wind: 12mph
Humidity: 97%   Direction: 170°S
Pressure: 30"   Gusts: NA
Location:  42.29°N, 93.09°W
Report Text: KMIW 211153Z AUTO 17010KT 5SM BR OVC008 02/02 A3000 RMK AO2 SLP167 T00220017 10022 20006 56016
Loading
Personal Weather Stations






























Interactive Weather Map New forecast layout! Learn more

10-Day Weather Forecast

Advertisements
Track Severe Weather on mobile